SBPB/PHB METAR and TAF weather

Enter ICAO airport designator
Station Type Date Time Source
SBPB METAR 2021/03/07 18:45 UTC NOAA

SBPB 071845Z 06010KT 9999 SCT017 FEW025TCU BKN100 29/25 Q1009


Station Type Date Time Source
SBPB Decoded METAR 2021/03/07 18:45 UTC NOAA

Parnaiba Aeroporto , Brazil (SBPB) 02-55S 041-45W
Mar 07, 2021 - 01:45 PM EST / 2021.03.07 1845 UTC
Wind: from the ENE (060 degrees) at 12 MPH (10 KT):0
Visibility: greater than 7 mile(s):0
Sky conditions: mostly cloudy
Weather: Towering cumulus clouds observed
Temperature: 84 F (29 C)
Dew Point: 77 F (25 C)
Relative Humidity: 79%
Pressure (altimeter): 29.80 in. Hg (1009 hPa)
ob: SBPB 071845Z 06010KT 9999 SCT017 FEW025TCU BKN100 29/25 Q1009
cycle: 19

Station Type Date Time Source
SBPB TAF 2021/03/07 18:57 UTC NOAA

TAF SBPB 071600Z 0718/0806 03015KT 9999 SCT025 TX29/0718Z TN25/0806Z
BECMG 0718/0720 06012KT
RMK PGW

Example: see airport list